Main page
METAR-TAF:

METAR-TAF

Airports :

Bandar Abbas, Iran

Bandar Abbas International Airport

latitude: 27-13N, longitude: 056-22E, elevation: 10 m

Current weather observation

The report was made 1 hour and 13 minutes ago, at 22:00 UTC
Wind 8 kt from the North/Northeast
Temperature 31°C
Humidity 75%
Pressure 1002 hPa
Visibility: 6000 m

METAR: OIKB 232200Z 03008KT 6000 NSC 31/26 Q1002 A2960

Time: 03:43 (23:13 UTC)

Forecast

The report was made 5 hours and 43 minutes ago, at 17:30 UTC
Forecast valid from 23 at 18 UTC to 24 at 24 UTC
Wind 8 kt from the Northeast
Visibility: 5000 m
haze
Becoming
from 23 at 19 UTC to 23 at 21 UTC
Visibility: 3000 m
Scattered clouds at a height of 3000 ft
mist
Becoming
from 24 at 06 UTC to 24 at 08 UTC
Wind 12 kt from the South
Visibility: 8000 m

TAF: OIKB 231730Z 2318/2424 05004MPS 5000 HZ NSC BECMG 2319/2321 3000 BR SCT030 BECMG 2406/2408 17006MPS 8000 NSC

Weather observations and forecasts of more than 4000 airports (METAR and TAF reports).

The available stations are represented by yellow and red dots on the map.

Hover mouse over dot to see the name of the station.

Then click to see weather observations and forecasts.

To change the map : click on the green buttons with a black cross to zoom in, on the green button with a dash to zoom out, or on the green arrows for adjacent maps.


METAR-TAF: